Time;durP1;ratioP1;P1;durP2;ratioP2;P2;SDS_P1;SDS_P2;PMS_P1;PMS_P2;Temp;Humidity;BMP_temperature;BMP_pressure;BME280_temperature;BME280_humidity;BME280_pressure;Samples;Min_cycle;Max_cycle;Signal;HPM_P1;HPM_P2
2022/06/29 00:03:10;;;;;;;;;;;25.00;46.80;;;;;;8466255;27;19916;-44
2022/06/29 00:07:10;;;;;;;;;;;25.00;46.80;;;;;;8466119;28;19915;-44
2022/06/29 00:11:11;;;;;;;;;;;25.00;46.80;;;;;;8465547;28;19918;-44
2022/06/29 00:15:12;;;;;;;;;;;25.00;46.70;;;;;;8465735;28;19912;-43
2022/06/29 00:19:12;;;;;;;;;;;25.00;46.70;;;;;;8465837;28;20052;-44
2022/06/29 00:23:13;;;;;;;;;;;25.00;46.70;;;;;;8464739;28;19920;-43
2022/06/29 00:27:13;;;;;;;;;;;25.00;46.60;;;;;;8465246;28;19955;-43
2022/06/29 00:31:14;;;;;;;;;;;25.00;46.60;;;;;;8465531;28;19912;-43
2022/06/29 00:35:14;;;;;;;;;;;25.00;46.60;;;;;;8464758;28;19916;-44
2022/06/29 00:39:15;;;;;;;;;;;25.00;46.60;;;;;;8465336;28;19919;-44
2022/06/29 00:43:15;;;;;;;;;;;25.00;46.60;;;;;;8464798;28;20378;-44
2022/06/29 00:47:16;;;;;;;;;;;25.00;46.60;;;;;;8464341;28;19916;-43
2022/06/29 00:51:17;;;;;;;;;;;25.00;46.60;;;;;;8464878;28;19911;-43
2022/06/29 00:55:18;;;;;;;;;;;25.00;46.60;;;;;;8464206;28;19911;-43
2022/06/29 00:59:23;;;;;;;;;;;25.00;46.60;;;;;;8464757;28;20292;-44
2022/06/29 01:03:23;;;;;;;;;;;25.00;46.50;;;;;;8451596;28;19982;-43
2022/06/29 01:07:26;;;;;;;;;;;24.90;46.50;;;;;;8463774;27;19912;-47
2022/06/29 01:11:26;;;;;;;;;;;24.90;46.40;;;;;;8464674;28;20364;-45
2022/06/29 01:15:26;;;;;;;;;;;24.90;46.40;;;;;;8463947;28;19935;-43
2022/06/29 01:19:27;;;;;;;;;;;25.00;46.40;;;;;;8463347;28;20040;-42
2022/06/29 01:23:27;;;;;;;;;;;24.90;46.40;;;;;;8463806;28;19923;-44
2022/06/29 01:27:28;;;;;;;;;;;24.90;46.40;;;;;;8463939;28;19923;-44
2022/06/29 01:31:28;;;;;;;;;;;24.90;46.40;;;;;;8463464;27;19916;-43
2022/06/29 01:35:29;;;;;;;;;;;24.90;46.40;;;;;;8462664;28;20555;-43
2022/06/29 01:39:30;;;;;;;;;;;24.90;46.40;;;;;;8464008;28;19908;-44
2022/06/29 01:43:31;;;;;;;;;;;24.90;46.30;;;;;;8462932;28;19920;-43
2022/06/29 01:47:31;;;;;;;;;;;24.90;46.30;;;;;;8463642;28;19908;-43
2022/06/29 01:51:32;;;;;;;;;;;24.90;46.40;;;;;;8462500;28;19912;-42
2022/06/29 01:55:32;;;;;;;;;;;24.90;46.30;;;;;;8462655;28;19927;-45
2022/06/29 01:59:33;;;;;;;;;;;24.80;46.30;;;;;;8463402;28;19918;-43
2022/06/29 02:03:33;;;;;;;;;;;24.80;46.30;;;;;;8463172;28;19923;-44
2022/06/29 02:07:34;;;;;;;;;;;24.90;46.30;;;;;;8462807;28;19923;-43
2022/06/29 02:11:34;;;;;;;;;;;24.90;46.30;;;;;;8462937;28;19912;-44
2022/06/29 02:15:34;;;;;;;;;;;24.80;46.30;;;;;;8463192;28;19915;-43
2022/06/29 02:19:35;;;;;;;;;;;24.80;46.30;;;;;;8462468;28;20416;-44
2022/06/29 02:23:36;;;;;;;;;;;24.80;46.20;;;;;;8462792;28;19920;-43
2022/06/29 02:27:40;;;;;;;;;;;24.80;46.20;;;;;;8462991;28;19954;-44
2022/06/29 02:35:59;;;;;;;;;;;24.80;46.30;;;;;;8462910;28;19938;-44
2022/06/29 02:40:00;;;;;;;;;;;24.80;46.20;;;;;;8462542;28;19908;-43
2022/06/29 02:44:01;;;;;;;;;;;24.80;46.20;;;;;;8462013;28;19919;-44
2022/06/29 02:48:01;;;;;;;;;;;24.80;46.30;;;;;;8468054;28;19915;-45
2022/06/29 02:52:02;;;;;;;;;;;24.80;46.30;;;;;;8468745;28;19965;-44
2022/06/29 02:56:03;;;;;;;;;;;24.80;46.20;;;;;;8467970;28;19912;-44
2022/06/29 03:00:04;;;;;;;;;;;24.80;46.20;;;;;;8468614;28;19934;-44
2022/06/29 03:04:04;;;;;;;;;;;24.80;46.20;;;;;;8468260;28;20015;-43
2022/06/29 03:08:05;;;;;;;;;;;24.80;46.20;;;;;;8467577;28;19914;-43
2022/06/29 03:12:06;;;;;;;;;;;24.80;46.80;;;;;;8468119;28;19915;-43
2022/06/29 03:16:06;;;;;;;;;;;24.80;46.20;;;;;;8467741;28;19914;-44
2022/06/29 03:20:07;;;;;;;;;;;24.70;46.20;;;;;;8467343;28;19912;-44
2022/06/29 03:24:07;;;;;;;;;;;24.70;46.20;;;;;;8467331;28;20284;-43
2022/06/29 03:28:08;;;;;;;;;;;24.70;46.20;;;;;;8467725;28;19912;-43
2022/06/29 03:32:08;;;;;;;;;;;24.70;46.20;;;;;;8466868;28;19916;-43
2022/06/29 03:36:08;;;;;;;;;;;24.70;46.20;;;;;;8465563;28;19969;-43
2022/06/29 03:40:10;;;;;;;;;;;24.70;46.20;;;;;;8467017;28;20002;-43
2022/06/29 03:44:10;;;;;;;;;;;24.70;46.20;;;;;;8466434;28;19959;-44
2022/06/29 03:48:11;;;;;;;;;;;24.70;46.20;;;;;;8466870;28;19908;-44
2022/06/29 03:52:12;;;;;;;;;;;24.60;46.10;;;;;;8466622;28;20364;-43
2022/06/29 03:56:12;;;;;;;;;;;24.60;46.10;;;;;;8465711;28;20360;-44
2022/06/29 04:00:13;;;;;;;;;;;24.60;46.10;;;;;;8465823;27;19911;-43
2022/06/29 04:04:13;;;;;;;;;;;24.60;46.10;;;;;;8466276;28;20287;-44
2022/06/29 04:08:15;;;;;;;;;;;24.60;46.10;;;;;;8461580;27;20286;-44
2022/06/29 04:12:16;;;;;;;;;;;24.60;46.10;;;;;;8464302;28;20453;-45
2022/06/29 04:16:16;;;;;;;;;;;24.60;46.10;;;;;;8465931;28;19912;-43
2022/06/29 04:24:36;;;;;;;;;;;24.60;46.10;;;;;;8470402;28;19933;-43
2022/06/29 04:28:36;;;;;;;;;;;24.60;46.10;;;;;;8465170;28;19908;-45
2022/06/29 04:32:37;;;;;;;;;;;24.60;46.10;;;;;;8465428;28;20007;-44
2022/06/29 04:36:37;;;;;;;;;;;24.60;46.10;;;;;;8465080;28;19965;-46
2022/06/29 04:40:38;;;;;;;;;;;24.60;46.10;;;;;;8464623;28;19912;-44
2022/06/29 04:44:38;;;;;;;;;;;24.60;46.10;;;;;;8465052;28;19923;-43
2022/06/29 04:48:38;;;;;;;;;;;24.60;46.00;;;;;;8465083;28;19918;-44
2022/06/29 04:52:39;;;;;;;;;;;24.60;46.00;;;;;;8464121;27;19912;-43
2022/06/29 04:56:39;;;;;;;;;;;24.60;46.00;;;;;;8464534;28;19912;-44
2022/06/29 05:00:40;;;;;;;;;;;24.60;46.10;;;;;;8464507;28;19919;-45
2022/06/29 05:04:40;;;;;;;;;;;24.60;46.00;;;;;;8463814;28;19926;-44
2022/06/29 05:08:41;;;;;;;;;;;24.60;46.00;;;;;;8463552;28;20351;-43
2022/06/29 05:12:41;;;;;;;;;;;24.60;46.10;;;;;;8462846;28;19911;-43
2022/06/29 05:16:42;;;;;;;;;;;24.50;46.00;;;;;;8463713;28;20962;-42
2022/06/29 05:20:45;;;;;;;;;;;24.60;46.00;;;;;;8464171;28;19912;-42
2022/06/29 05:24:45;;;;;;;;;;;24.60;46.00;;;;;;8463955;28;20306;-42
2022/06/29 05:28:47;;;;;;;;;;;24.60;46.00;;;;;;8463545;28;19908;-42
2022/06/29 05:32:48;;;;;;;;;;;24.60;46.00;;;;;;8463474;28;19943;-43
2022/06/29 05:36:48;;;;;;;;;;;24.60;46.00;;;;;;8463421;28;19923;-42
2022/06/29 05:40:49;;;;;;;;;;;24.60;46.00;;;;;;8462831;28;20364;-43
2022/06/29 05:44:49;;;;;;;;;;;24.60;46.00;;;;;;8463475;28;19926;-43
2022/06/29 05:48:50;;;;;;;;;;;24.60;46.00;;;;;;8463731;28;19914;-43
2022/06/29 05:52:50;;;;;;;;;;;24.60;46.00;;;;;;8462750;28;19919;-43
2022/06/29 05:56:51;;;;;;;;;;;24.60;46.00;;;;;;8463451;28;19919;-43
2022/06/29 06:00:51;;;;;;;;;;;24.60;46.00;;;;;;8463111;28;19912;-43
2022/06/29 06:04:52;;;;;;;;;;;24.60;46.00;;;;;;8462930;28;19920;-44
2022/06/29 06:08:53;;;;;;;;;;;24.60;46.00;;;;;;8463592;28;19908;-43
2022/06/29 06:12:53;;;;;;;;;;;24.60;46.00;;;;;;8463033;28;19947;-43
2022/06/29 06:16:54;;;;;;;;;;;24.60;46.00;;;;;;8462488;28;19964;-43
2022/06/29 06:20:54;;;;;;;;;;;24.60;46.00;;;;;;8465102;28;19916;-43
2022/06/29 06:24:55;;;;;;;;;;;24.60;45.90;;;;;;8469745;28;19924;-43
2022/06/29 06:28:55;;;;;;;;;;;24.60;45.90;;;;;;8469327;27;20002;-43
2022/06/29 06:32:56;;;;;;;;;;;24.60;45.90;;;;;;8469442;28;19918;-44
2022/06/29 06:36:56;;;;;;;;;;;24.60;45.90;;;;;;8468888;28;19918;-44
2022/06/29 06:45:16;;;;;;;;;;;24.60;45.90;;;;;;8474453;28;20501;-43
2022/06/29 06:49:16;;;;;;;;;;;24.60;45.90;;;;;;8468874;28;19908;-43
2022/06/29 06:53:17;;;;;;;;;;;24.60;45.90;;;;;;8467918;28;19911;-43
2022/06/29 06:57:17;;;;;;;;;;;24.60;45.90;;;;;;8468219;27;20292;-43
2022/06/29 07:01:18;;;;;;;;;;;24.60;45.90;;;;;;8467622;28;19999;-48
2022/06/29 07:05:19;;;;;;;;;;;24.60;45.80;;;;;;8467710;28;20485;-43
2022/06/29 07:09:20;;;;;;;;;;;24.70;45.90;;;;;;8468486;28;20379;-43
2022/06/29 07:13:20;;;;;;;;;;;24.70;45.80;;;;;;8466290;28;19918;-43
2022/06/29 07:17:20;;;;;;;;;;;24.70;45.80;;;;;;8467932;28;19919;-43
2022/06/29 07:21:21;;;;;;;;;;;24.70;45.80;;;;;;8467547;28;19918;-43
2022/06/29 07:25:21;;;;;;;;;;;24.70;45.80;;;;;;8467237;28;19930;-43
2022/06/29 07:29:22;;;;;;;;;;;24.70;45.80;;;;;;8467422;28;19912;-43
2022/06/29 07:33:23;;;;;;;;;;;24.70;45.80;;;;;;8465814;28;20014;-45
2022/06/29 07:37:23;;;;;;;;;;;24.70;45.80;;;;;;8466304;28;19919;-42
2022/06/29 07:41:24;;;;;;;;;;;24.70;45.80;;;;;;8466589;28;19911;-42
2022/06/29 07:45:24;;;;;;;;;;;24.70;45.80;;;;;;8466679;28;20386;-44
2022/06/29 07:49:25;;;;;;;;;;;24.70;45.80;;;;;;8466315;27;19908;-43
2022/06/29 07:53:26;;;;;;;;;;;24.70;45.80;;;;;;8465327;28;20386;-44
2022/06/29 07:57:26;;;;;;;;;;;24.80;45.90;;;;;;8466449;28;19911;-44
2022/06/29 08:01:27;;;;;;;;;;;24.80;45.90;;;;;;8465855;28;19911;-43
2022/06/29 08:05:27;;;;;;;;;;;24.80;45.80;;;;;;8466006;28;20288;-44
2022/06/29 08:09:28;;;;;;;;;;;24.80;45.80;;;;;;8465947;28;19955;-43
2022/06/29 08:13:28;;;;;;;;;;;24.80;45.80;;;;;;8465210;28;20045;-44
2022/06/29 08:17:29;;;;;;;;;;;24.80;45.80;;;;;;8465512;28;19916;-43
2022/06/29 08:21:29;;;;;;;;;;;24.80;45.80;;;;;;8465381;28;20364;-44
2022/06/29 08:25:31;;;;;;;;;;;24.80;45.80;;;;;;8465074;28;19931;-44
2022/06/29 08:29:31;;;;;;;;;;;24.80;45.70;;;;;;8465586;28;19987;-43
2022/06/29 08:33:32;;;;;;;;;;;24.90;45.70;;;;;;8464963;28;20372;-45
2022/06/29 08:37:32;;;;;;;;;;;24.90;45.80;;;;;;8464648;27;19947;-46
2022/06/29 08:41:34;;;;;;;;;;;24.90;45.70;;;;;;8465190;28;19919;-44
2022/06/29 08:45:34;;;;;;;;;;;24.90;45.70;;;;;;8464437;28;20460;-43
2022/06/29 08:49:39;;;;;;;;;;;24.90;45.70;;;;;;8464308;28;19907;-43
2022/06/29 08:53:40;;;;;;;;;;;24.90;45.70;;;;;;8464667;28;19915;-43
2022/06/29 08:57:41;;;;;;;;;;;24.90;45.80;;;;;;8464449;28;20372;-43
2022/06/29 09:01:42;;;;;;;;;;;25.00;45.70;;;;;;8463955;28;20261;-44
2022/06/29 09:05:49;;;;;;;;;;;25.00;45.70;;;;;;8463975;28;20017;-42
2022/06/29 09:10:11;;;;;;;;;;;25.00;45.70;;;;;;8464434;28;19908;-43
2022/06/29 09:14:19;;;;;;;;;;;25.00;45.60;;;;;;8463702;28;19918;-44
2022/06/29 09:18:25;;;;;;;;;;;25.00;45.50;;;;;;8463885;28;19915;-43
2022/06/29 09:22:25;;;;;;;;;;;25.10;45.60;;;;;;8463152;28;20319;-44
2022/06/29 09:26:29;;;;;;;;;;;25.10;45.60;;;;;;8463541;28;19915;-44
2022/06/29 09:30:35;;;;;;;;;;;25.10;45.50;;;;;;8464025;28;19931;-45
2022/06/29 09:34:38;;;;;;;;;;;25.10;45.50;;;;;;8463015;28;19911;-45
2022/06/29 09:38:38;;;;;;;;;;;25.10;45.50;;;;;;8463886;28;20037;-45
2022/06/29 09:42:40;;;;;;;;;;;25.10;45.50;;;;;;8463429;28;20391;-44
2022/06/29 09:46:40;;;;;;;;;;;25.10;45.50;;;;;;8463033;28;19919;-43
2022/06/29 09:50:41;;;;;;;;;;;25.10;45.50;;;;;;8463556;28;19911;-43
2022/06/29 09:54:54;;;;;;;;;;;25.10;45.50;;;;;;8463183;28;19974;-42
2022/06/29 09:58:56;;;;;;;;;;;25.10;45.50;;;;;;8469968;28;20360;-43
2022/06/29 10:02:57;;;;;;;;;;;25.10;45.50;;;;;;8459222;28;19924;-45
2022/06/29 10:06:57;;;;;;;;;;;25.20;45.50;;;;;;8445732;28;19911;-44
2022/06/29 10:13:39;;;;;;;;;;;25.20;45.50;;;;;;8469329;28;19912;-45
2022/06/29 10:15:27;;;;;;;;;;;25.20;45.50;;;;;;8469900;28;19986;-45
2022/06/29 10:19:35;;;;;;;;;;;25.20;45.50;;;;;;8469091;28;19918;-44
2022/06/29 10:23:45;;;;;;;;;;;25.20;45.50;;;;;;8469965;28;19928;-43
2022/06/29 10:28:06;;;;;;;;;;;25.20;45.50;;;;;;8469499;28;19923;-45
2022/06/29 10:32:11;;;;;;;;;;;25.20;45.50;;;;;;8468558;28;19912;-44
2022/06/29 10:36:13;;;;;;;;;;;25.20;45.40;;;;;;8468844;27;20006;-44
2022/06/29 10:40:17;;;;;;;;;;;25.20;45.40;;;;;;8468920;28;19908;-44
2022/06/29 10:44:18;;;;;;;;;;;25.20;45.40;;;;;;8468345;28;19923;-44
2022/06/29 10:48:20;;;;;;;;;;;25.20;45.40;;;;;;8468684;28;20387;-43
2022/06/29 10:52:21;;;;;;;;;;;25.20;45.40;;;;;;8467981;28;19994;-43
2022/06/29 10:56:21;;;;;;;;;;;25.30;45.40;;;;;;8468427;28;19961;-43
2022/06/29 11:00:25;;;;;;;;;;;25.30;45.40;;;;;;8468478;28;20625;-43
2022/06/29 11:04:26;;;;;;;;;;;25.30;45.40;;;;;;8467462;28;19961;-43
2022/06/29 11:12:50;;;;;;;;;;;25.30;45.30;;;;;;8468034;28;19999;-44
2022/06/29 11:16:52;;;;;;;;;;;25.30;45.20;;;;;;8467206;28;20006;-44
2022/06/29 11:20:53;;;;;;;;;;;25.40;45.30;;;;;;8467816;28;19958;-43
2022/06/29 11:24:54;;;;;;;;;;;25.30;45.20;;;;;;8467465;28;19973;-45
2022/06/29 11:28:57;;;;;;;;;;;25.40;45.30;;;;;;8466962;28;19991;-44
2022/06/29 11:32:57;;;;;;;;;;;25.40;45.20;;;;;;8467480;28;19918;-44
2022/06/29 11:37:00;;;;;;;;;;;25.40;45.20;;;;;;8467189;28;20360;-44
2022/06/29 11:41:08;;;;;;;;;;;25.40;45.30;;;;;;8466896;28;19931;-43
2022/06/29 11:45:09;;;;;;;;;;;25.40;45.20;;;;;;8466787;28;19955;-43
2022/06/29 11:53:36;;;;;;;;;;;25.40;45.20;;;;;;8466284;27;19965;-43
2022/06/29 11:57:37;;;;;;;;;;;25.40;45.20;;;;;;8466552;27;20010;-43
2022/06/29 12:01:38;;;;;;;;;;;25.40;45.20;;;;;;8466120;28;20253;-43
2022/06/29 12:05:53;;;;;;;;;;;25.40;45.10;;;;;;8466461;28;19915;-45
2022/06/29 12:09:53;;;;;;;;;;;25.40;45.10;;;;;;8466148;28;20288;-43
2022/06/29 12:13:53;;;;;;;;;;;25.40;45.10;;;;;;8465463;28;19943;-43
2022/06/29 12:17:54;;;;;;;;;;;25.40;45.10;;;;;;8465370;28;19912;-44
2022/06/29 12:21:57;;;;;;;;;;;25.40;45.10;;;;;;8465958;27;19969;-43
2022/06/29 12:25:58;;;;;;;;;;;25.50;45.20;;;;;;8465713;28;20388;-44
2022/06/29 12:29:59;;;;;;;;;;;25.50;45.10;;;;;;8465616;28;19965;-44
2022/06/29 12:34:00;;;;;;;;;;;25.50;45.20;;;;;;8465361;28;19994;-43
2022/06/29 12:38:00;;;;;;;;;;;25.50;45.10;;;;;;8464831;28;19919;-43
2022/06/29 12:42:02;;;;;;;;;;;25.50;45.10;;;;;;8465028;28;19915;-43
2022/06/29 12:46:03;;;;;;;;;;;25.50;45.10;;;;;;8465271;28;19919;-43
2022/06/29 12:50:04;;;;;;;;;;;25.50;45.00;;;;;;8464365;28;19974;-43
2022/06/29 12:54:04;;;;;;;;;;;25.60;45.00;;;;;;8464645;28;19964;-44
2022/06/29 12:58:04;;;;;;;;;;;25.60;45.00;;;;;;8464446;28;20357;-44
2022/06/29 13:02:06;;;;;;;;;;;25.60;45.00;;;;;;8463999;28;20288;-43
2022/06/29 13:06:07;;;;;;;;;;;25.60;44.90;;;;;;8463336;28;19994;-42
2022/06/29 13:10:07;;;;;;;;;;;25.60;44.90;;;;;;8464168;28;19916;-43
2022/06/29 13:14:08;;;;;;;;;;;25.60;44.90;;;;;;8463678;28;19912;-43
2022/06/29 13:18:08;;;;;;;;;;;25.60;44.90;;;;;;8464039;28;20002;-43
2022/06/29 13:22:09;;;;;;;;;;;25.70;45.00;;;;;;8464158;28;19915;-42
2022/06/29 13:26:09;;;;;;;;;;;25.70;45.00;;;;;;8463555;28;19931;-42
2022/06/29 13:30:10;;;;;;;;;;;25.70;44.90;;;;;;8462760;28;19969;-42
2022/06/29 13:34:11;;;;;;;;;;;25.70;44.90;;;;;;8463847;28;20382;-43
2022/06/29 13:38:13;;;;;;;;;;;25.80;44.90;;;;;;8463010;28;19916;-42
2022/06/29 13:42:14;;;;;;;;;;;25.70;44.90;;;;;;8463902;28;20276;-43
2022/06/29 13:46:14;;;;;;;;;;;25.70;45.10;;;;;;8463498;28;20003;-42
2022/06/29 13:50:15;;;;;;;;;;;25.80;44.90;;;;;;8462953;28;19998;-42
2022/06/29 13:54:15;;;;;;;;;;;25.80;44.80;;;;;;8463499;28;20390;-43
2022/06/29 13:58:16;;;;;;;;;;;25.80;44.80;;;;;;8463395;28;19923;-43
2022/06/29 14:02:16;;;;;;;;;;;25.90;44.80;;;;;;8462899;28;19953;-44
2022/06/29 14:06:17;;;;;;;;;;;25.90;44.80;;;;;;8462957;28;19923;-42
2022/06/29 14:10:18;;;;;;;;;;;25.90;44.70;;;;;;8462276;28;19915;-43
2022/06/29 14:14:19;;;;;;;;;;;25.90;44.70;;;;;;8462826;28;19918;-43
2022/06/29 14:18:19;;;;;;;;;;;25.90;44.70;;;;;;8462725;28;19994;-44
2022/06/29 14:22:20;;;;;;;;;;;25.90;44.60;;;;;;8462570;28;19942;-43
2022/06/29 14:26:20;;;;;;;;;;;25.90;44.70;;;;;;8462584;28;19919;-44
2022/06/29 14:30:21;;;;;;;;;;;25.90;44.60;;;;;;8462713;28;19994;-43
2022/06/29 14:34:21;;;;;;;;;;;25.90;44.70;;;;;;8461988;28;20040;-43
2022/06/29 14:38:22;;;;;;;;;;;25.90;44.70;;;;;;8462640;28;19916;-45
2022/06/29 14:42:24;;;;;;;;;;;25.90;44.70;;;;;;8465792;28;20517;-45
2022/06/29 14:46:24;;;;;;;;;;;25.90;44.70;;;;;;8468203;28;19985;-43
2022/06/29 14:50:25;;;;;;;;;;;25.90;44.60;;;;;;8468823;28;19911;-44
2022/06/29 14:54:25;;;;;;;;;;;25.90;44.70;;;;;;8468525;27;19958;-43
2022/06/29 14:58:25;;;;;;;;;;;25.90;44.70;;;;;;8467999;27;19915;-44
2022/06/29 15:02:26;;;;;;;;;;;25.90;44.70;;;;;;8467869;28;19922;-43
2022/06/29 15:06:27;;;;;;;;;;;25.90;44.70;;;;;;8467386;28;19947;-42
2022/06/29 15:10:30;;;;;;;;;;;25.90;44.60;;;;;;8467316;28;20395;-43
2022/06/29 15:14:31;;;;;;;;;;;25.90;44.70;;;;;;8467582;28;19911;-44
2022/06/29 15:18:32;;;;;;;;;;;25.90;44.70;;;;;;8467046;28;19911;-45
2022/06/29 15:22:32;;;;;;;;;;;25.90;44.60;;;;;;8466987;28;19939;-46
2022/06/29 15:26:33;;;;;;;;;;;26.00;44.70;;;;;;8467171;28;19915;-42
2022/06/29 15:30:33;;;;;;;;;;;25.90;44.60;;;;;;8466989;28;19912;-43
2022/06/29 15:38:53;;;;;;;;;;;26.00;44.60;;;;;;8473530;28;19954;-44
2022/06/29 15:42:53;;;;;;;;;;;26.00;44.60;;;;;;8466858;28;19920;-44
2022/06/29 15:46:54;;;;;;;;;;;26.00;44.60;;;;;;8466100;28;19940;-42
2022/06/29 15:50:54;;;;;;;;;;;26.00;44.60;;;;;;8466266;28;19994;-44
2022/06/29 15:59:14;;;;;;;;;;;26.00;44.50;;;;;;8466007;27;19934;-43
2022/06/29 16:03:14;;;;;;;;;;;26.00;44.50;;;;;;8451451;27;19919;-45
2022/06/29 16:07:15;;;;;;;;;;;26.00;44.50;;;;;;8465372;28;19915;-43
2022/06/29 16:11:15;;;;;;;;;;;26.10;44.50;;;;;;8461515;28;19994;-45
2022/06/29 16:15:16;;;;;;;;;;;26.10;44.50;;;;;;8457450;28;20627;-43
2022/06/29 16:19:16;;;;;;;;;;;26.10;44.50;;;;;;8458694;28;20486;-43
2022/06/29 16:23:17;;;;;;;;;;;26.10;44.50;;;;;;8461485;28;20283;-44
2022/06/29 16:27:17;;;;;;;;;;;26.10;44.60;;;;;;8460212;28;19930;-44
2022/06/29 16:31:17;;;;;;;;;;;26.10;44.50;;;;;;8462833;28;20046;-44
2022/06/29 16:35:18;;;;;;;;;;;26.10;44.50;;;;;;8465175;28;19918;-44
2022/06/29 16:39:19;;;;;;;;;;;26.10;44.50;;;;;;8463313;28;19907;-44
2022/06/29 16:43:19;;;;;;;;;;;26.10;44.50;;;;;;8464762;28;19969;-43
2022/06/29 16:47:20;;;;;;;;;;;26.10;44.50;;;;;;8461522;28;19923;-44
2022/06/29 16:51:20;;;;;;;;;;;26.10;44.50;;;;;;8463701;28;19911;-43
2022/06/29 16:55:21;;;;;;;;;;;26.10;44.50;;;;;;8464021;28;19908;-43
2022/06/29 16:59:21;;;;;;;;;;;26.10;44.50;;;;;;8462314;28;20368;-44
2022/06/29 17:03:22;;;;;;;;;;;26.10;44.40;;;;;;8464451;28;20353;-44
2022/06/29 17:07:22;;;;;;;;;;;26.10;44.50;;;;;;8461304;28;19922;-43
2022/06/29 17:11:23;;;;;;;;;;;26.10;44.50;;;;;;8464105;28;19912;-44
2022/06/29 17:15:24;;;;;;;;;;;26.10;44.50;;;;;;8461723;28;19908;-43
2022/06/29 17:19:24;;;;;;;;;;;26.10;44.40;;;;;;8461818;28;19912;-43
2022/06/29 17:23:25;;;;;;;;;;;26.10;44.50;;;;;;8463869;28;19915;-43
2022/06/29 17:27:25;;;;;;;;;;;26.10;44.50;;;;;;8461788;28;19922;-44
2022/06/29 17:31:26;;;;;;;;;;;26.10;44.40;;;;;;8463161;28;19908;-43
2022/06/29 17:35:26;;;;;;;;;;;26.10;44.40;;;;;;8454239;28;20299;-44
2022/06/29 17:39:26;;;;;;;;;;;26.10;44.40;;;;;;8456695;28;20269;-44
2022/06/29 17:43:27;;;;;;;;;;;26.10;44.40;;;;;;8454729;28;20259;-43
2022/06/29 17:47:27;;;;;;;;;;;26.10;44.40;;;;;;8454011;28;19957;-44
2022/06/29 17:51:28;;;;;;;;;;;26.10;44.40;;;;;;8462224;28;19912;-43
2022/06/29 17:55:28;;;;;;;;;;;26.10;44.40;;;;;;8457882;28;20368;-43
2022/06/29 17:59:29;;;;;;;;;;;26.10;44.40;;;;;;8463456;28;19912;-43
2022/06/29 18:03:30;;;;;;;;;;;26.10;44.40;;;;;;8462666;28;20085;-42
2022/06/29 18:07:30;;;;;;;;;;;26.10;44.40;;;;;;8462864;28;19923;-44
2022/06/29 18:11:31;;;;;;;;;;;26.10;44.40;;;;;;8461211;28;19920;-42
2022/06/29 18:15:31;;;;;;;;;;;26.10;44.40;;;;;;8463017;28;19915;-43
2022/06/29 18:19:31;;;;;;;;;;;26.10;44.40;;;;;;8467073;28;19911;-45
2022/06/29 18:23:32;;;;;;;;;;;26.10;44.40;;;;;;8466126;27;19940;-44
2022/06/29 18:27:33;;;;;;;;;;;26.10;44.50;;;;;;8469644;28;20329;-44
2022/06/29 18:31:33;;;;;;;;;;;26.10;44.50;;;;;;8467005;28;19914;-45
2022/06/29 18:35:34;;;;;;;;;;;26.10;44.50;;;;;;8469528;28;19912;-44
2022/06/29 18:39:35;;;;;;;;;;;26.00;44.50;;;;;;8468273;28;19908;-44
2022/06/29 18:43:35;;;;;;;;;;;26.10;44.70;;;;;;8463444;27;19920;-44
2022/06/29 18:47:36;;;;;;;;;;;26.10;44.70;;;;;;8466594;28;19965;-44
2022/06/29 18:51:36;;;;;;;;;;;26.10;45.30;;;;;;8468939;28;19915;-44
2022/06/29 18:55:38;;;;;;;;;;;26.00;44.70;;;;;;8464285;27;19920;-43
2022/06/29 18:59:38;;;;;;;;;;;26.00;44.70;;;;;;8465395;28;20363;-43
2022/06/29 19:03:38;;;;;;;;;;;26.00;44.60;;;;;;8467162;28;19920;-42
2022/06/29 19:07:39;;;;;;;;;;;26.00;44.60;;;;;;8461646;28;19911;-47
2022/06/29 19:11:53;;;;;;;;;;;26.00;44.60;;;;;;8467676;28;19961;-43
2022/06/29 19:15:53;;;;;;;;;;;26.00;44.60;;;;;;8458969;27;19982;-44
2022/06/29 19:19:54;;;;;;;;;;;26.00;44.70;;;;;;8463539;28;19912;-43
2022/06/29 19:23:54;;;;;;;;;;;26.00;44.60;;;;;;8467522;28;19965;-44
2022/06/29 19:27:55;;;;;;;;;;;26.00;44.60;;;;;;8465914;28;20284;-43
2022/06/29 19:31:55;;;;;;;;;;;26.00;44.70;;;;;;8467181;28;19994;-43
2022/06/29 19:35:56;;;;;;;;;;;25.90;44.60;;;;;;8467366;28;19911;-43
2022/06/29 19:39:56;;;;;;;;;;;26.00;44.70;;;;;;8467443;28;20288;-43
2022/06/29 19:43:57;;;;;;;;;;;25.90;44.70;;;;;;8466957;28;19919;-44
2022/06/29 19:47:57;;;;;;;;;;;25.90;44.70;;;;;;8465838;28;19972;-43
2022/06/29 19:51:58;;;;;;;;;;;25.90;44.70;;;;;;8467019;28;19994;-44
2022/06/29 19:55:58;;;;;;;;;;;25.90;44.70;;;;;;8466343;28;19919;-52
2022/06/29 19:59:58;;;;;;;;;;;25.90;44.70;;;;;;8466633;28;19987;-43
2022/06/29 20:03:59;;;;;;;;;;;25.90;44.70;;;;;;8466737;28;19929;-43
2022/06/29 20:08:00;;;;;;;;;;;25.90;44.70;;;;;;8465814;28;19912;-42
2022/06/29 20:12:01;;;;;;;;;;;25.90;44.70;;;;;;8466502;28;19923;-43
2022/06/29 20:16:03;;;;;;;;;;;25.90;44.70;;;;;;8466245;28;20367;-43
2022/06/29 20:20:03;;;;;;;;;;;25.90;44.70;;;;;;8465574;28;20033;-42
2022/06/29 20:24:04;;;;;;;;;;;25.90;44.80;;;;;;8466094;28;19919;-42
2022/06/29 20:28:04;;;;;;;;;;;25.90;44.70;;;;;;8465939;28;19912;-43
2022/06/29 20:32:05;;;;;;;;;;;25.90;44.70;;;;;;8465235;27;19915;-44
2022/06/29 20:36:05;;;;;;;;;;;25.90;44.70;;;;;;8465575;28;19953;-43
2022/06/29 20:40:06;;;;;;;;;;;25.90;44.70;;;;;;8465095;28;19912;-42
2022/06/29 20:48:26;;;;;;;;;;;25.80;44.60;;;;;;8465411;28;20010;-43
2022/06/29 20:52:26;;;;;;;;;;;25.90;44.70;;;;;;8464621;28;20256;-43
2022/06/29 20:56:27;;;;;;;;;;;25.80;44.70;;;;;;8465299;28;19912;-42
2022/06/29 21:00:27;;;;;;;;;;;25.80;44.70;;;;;;8464804;28;19954;-43
2022/06/29 21:04:28;;;;;;;;;;;25.80;44.70;;;;;;8464506;27;19915;-43
2022/06/29 21:08:28;;;;;;;;;;;25.80;44.70;;;;;;8464542;28;19911;-42
2022/06/29 21:12:29;;;;;;;;;;;25.80;44.70;;;;;;8464678;28;20272;-43
2022/06/29 21:16:29;;;;;;;;;;;25.90;44.70;;;;;;8463825;27;19911;-43
2022/06/29 21:20:30;;;;;;;;;;;25.80;44.70;;;;;;8464081;28;19912;-42
2022/06/29 21:24:30;;;;;;;;;;;25.80;44.70;;;;;;8464178;28;19920;-43
2022/06/29 21:28:31;;;;;;;;;;;25.80;44.70;;;;;;8463603;28;19964;-42
2022/06/29 21:32:31;;;;;;;;;;;25.90;44.80;;;;;;8463806;28;19912;-43
2022/06/29 21:36:31;;;;;;;;;;;25.80;44.70;;;;;;8463759;28;19920;-43
2022/06/29 21:40:32;;;;;;;;;;;25.80;44.70;;;;;;8463376;28;19912;-42
2022/06/29 21:44:32;;;;;;;;;;;25.80;44.70;;;;;;8463877;28;19920;-42
2022/06/29 21:52:52;;;;;;;;;;;25.80;44.70;;;;;;8462345;28;19934;-42
2022/06/29 21:56:54;;;;;;;;;;;25.80;44.70;;;;;;8463751;28;19912;-42
2022/06/29 22:00:55;;;;;;;;;;;25.80;44.70;;;;;;8463084;28;19927;-42
2022/06/29 22:04:55;;;;;;;;;;;25.70;44.70;;;;;;8452945;28;19926;-42
2022/06/29 22:08:56;;;;;;;;;;;25.80;44.70;;;;;;8457490;28;19915;-42
2022/06/29 22:12:56;;;;;;;;;;;25.70;44.70;;;;;;8463359;28;19927;-42
2022/06/29 22:16:57;;;;;;;;;;;25.70;44.70;;;;;;8462750;28;19912;-42
2022/06/29 22:20:57;;;;;;;;;;;25.70;44.70;;;;;;8463364;28;19915;-43
2022/06/29 22:24:57;;;;;;;;;;;25.80;44.70;;;;;;8463408;28;20045;-42
2022/06/29 22:28:58;;;;;;;;;;;25.70;44.70;;;;;;8462595;28;19919;-42
2022/06/29 22:32:58;;;;;;;;;;;25.70;44.70;;;;;;8462809;28;19918;-42
2022/06/29 22:36:59;;;;;;;;;;;25.70;44.70;;;;;;8462829;28;20352;-42
2022/06/29 22:40:59;;;;;;;;;;;25.70;44.70;;;;;;8462454;28;19908;-44
2022/06/29 22:45:00;;;;;;;;;;;25.70;44.70;;;;;;8462905;28;19916;-43
2022/06/29 22:49:00;;;;;;;;;;;25.70;44.70;;;;;;8462768;28;19923;-43
2022/06/29 22:53:00;;;;;;;;;;;25.70;44.80;;;;;;8462324;28;20327;-43
2022/06/29 22:57:01;;;;;;;;;;;25.60;44.70;;;;;;8462860;28;19965;-43
2022/06/29 23:01:02;;;;;;;;;;;25.70;44.80;;;;;;8462523;28;19908;-43
2022/06/29 23:05:03;;;;;;;;;;;25.60;44.70;;;;;;8467462;27;20018;-43
2022/06/29 23:09:03;;;;;;;;;;;25.60;44.70;;;;;;8468715;28;19919;-43
2022/06/29 23:13:04;;;;;;;;;;;25.60;44.70;;;;;;8468346;28;20284;-43
2022/06/29 23:17:04;;;;;;;;;;;25.60;44.70;;;;;;8467744;27;19930;-44
2022/06/29 23:21:04;;;;;;;;;;;25.60;44.70;;;;;;8468251;28;19915;-43
2022/06/29 23:25:05;;;;;;;;;;;25.60;44.70;;;;;;8467801;28;19924;-42
2022/06/29 23:29:05;;;;;;;;;;;25.60;44.70;;;;;;8467350;28;19918;-43
2022/06/29 23:33:06;;;;;;;;;;;25.60;44.70;;;;;;8467875;28;19915;-43
2022/06/29 23:37:07;;;;;;;;;;;25.60;44.70;;;;;;8467505;27;19962;-43
2022/06/29 23:41:07;;;;;;;;;;;25.60;44.80;;;;;;8467167;27;19908;-42
2022/06/29 23:45:09;;;;;;;;;;;25.60;44.80;;;;;;8467213;28;19981;-43
2022/06/29 23:49:10;;;;;;;;;;;25.60;44.80;;;;;;8467390;28;19962;-42
2022/06/29 23:53:10;;;;;;;;;;;25.60;44.80;;;;;;8466548;28;19916;-42
2022/06/29 23:57:11;;;;;;;;;;;25.60;44.80;;;;;;8467140;28;19922;-43
